Tainan Airport
RCNN : now visible

Airfield :











YOU CAN JOIN US ON...

 
LOGIN :

Register | Disclaimer

   EN    FR    IT 

 









Legend :    VFR   Marginal VFR   IFR   Intensive IFR   Very Intensive IFR
Visi :
Ceiling :
>= 8 km
>= 3000ft
5 to 8 km
1000 to 3000 ft
1500m to 5 km
500 to 1000 ft
800 to 1500m
200 to 500 ft
< 800m
< 200 ft
Symbols :   Thunderstorms  Fog  Heavy snow  Heavy precipitations  Wind > 20 kt







- Airport Elevation : 63 ft
- IATA code : TNN


RCNN - Tainan

CURRENT METAR :
  • 190600Z 17005KT 8000 -RA SCT010 FEW012CB BKN025 BKN050 24/22 Q1005 NOSIG RMK A2968 RA AMT 0.1MM CB W RVR N/A

EXPIRED METARs :
  • 190530Z 17004KT 8000 -RA SCT010 FEW012CB BKN025 BKN050 24/22 Q1005 NOSIG RMK A2969 CB W RVR N/A
  • 190500Z 15004KT 8000 -RA SCT010 FEW012CB BKN025 BKN050 24/22 Q1006 NOSIG RMK A2971 CB W RVR N/A
  • 190430Z 17004KT 8000 -RA SCT010 BKN025 BKN050 24/22 Q1006 NOSIG RMK A2971 RVR N/A
  • 190400Z 16004KT 8000 -RA SCT010 BKN025 BKN050 23/22 Q1006 NOSIG RMK A2972 RA AMT 0.5MM RVR N/A

TAF TAF RCNN
Valid from the 19 at 06:00 until the 20 at 06:00 UTC


190500Z 1906/2006 14006KT 8000 -RA SCT010 BKN025 BKN050 TX28/1906Z TN24/1920Z
BECMG 1912/1915 5000 RA BR SCT008 FEW010CB BKN020 OVC040
TEMPO 1918/1923 8000 SCT010 BKN025 BKN050
No reported NOTAMs for that airfield.



MET'MAP, your aeronautical weather chart ! - Copyright ORBIFLY December 2007 - Disclaimer

ORBIFLY MET'MAP TEAM :

Programming & Development : Alexandra Zaïnal
Concept & Development : Baudouin d'Aumeries
Co-Development & Prog : Marc-Olivier Méhu
Technical & hardware support : Manuel Goepfert

Contact : metmap@orbifly.com




SOURCES & CREDITS :

   NOAA       Earth
Advisory